createdAt,value
2023-02-20T00:01:27.885Z,4.60
2023-02-20T00:03:54.747Z,4.70
2023-02-20T00:06:21.617Z,4.70
2023-02-20T00:09:19.421Z,4.70
2023-02-20T00:12:48.661Z,4.70
2023-02-20T00:15:43.532Z,4.70
2023-02-20T00:18:22.452Z,4.70
2023-02-20T00:21:01.583Z,4.70
2023-02-20T00:26:37.610Z,4.60
2023-02-20T00:29:31.453Z,4.60
2023-02-20T00:32:30.684Z,4.60
2023-02-20T00:35:29.344Z,4.60
2023-02-20T00:41:27.580Z,4.70
2023-02-20T00:44:19.386Z,4.70
2023-02-20T00:47:36.032Z,4.70
2023-02-20T00:50:21.457Z,4.70
2023-02-20T00:52:48.257Z,4.70
2023-02-20T00:55:15.069Z,4.80
2023-02-20T00:57:45.024Z,4.80
2023-02-20T01:00:39.590Z,4.80
2023-02-20T01:03:18.519Z,4.80
2023-02-20T01:06:11.129Z,4.80
2023-02-20T01:08:50.145Z,4.80
2023-02-20T01:11:17.105Z,4.80
2023-02-20T01:13:43.948Z,4.80
2023-02-20T01:16:11.216Z,4.80
2023-02-20T01:18:38.360Z,4.80
2023-02-20T01:21:23.577Z,4.80
2023-02-20T01:23:50.481Z,4.80
2023-02-20T01:26:40.654Z,4.80
2023-02-20T01:29:07.456Z,4.80
2023-02-20T01:31:51.362Z,4.80
2023-02-20T01:34:27.537Z,4.80
2023-02-20T01:37:06.319Z,4.80
2023-02-20T01:44:25.726Z,4.80
2023-02-20T01:46:56.418Z,4.80
2023-02-20T01:49:31.684Z,4.80
2023-02-20T01:59:25.262Z,4.80
2023-02-20T02:01:52.696Z,4.80
2023-02-20T02:04:20.403Z,4.80
2023-02-20T02:06:49.955Z,4.80
2023-02-20T02:16:55.889Z,4.80
2023-02-20T02:23:50.653Z,4.90
2023-02-20T02:26:39.395Z,4.90
2023-02-20T02:33:41.720Z,5.00
2023-02-20T02:40:58.020Z,5.00
2023-02-20T02:43:30.032Z,5.00
2023-02-20T02:53:11.804Z,5.10
2023-02-20T02:55:41.878Z,5.10
2023-02-20T02:58:12.872Z,5.20
2023-02-20T03:00:49.962Z,5.20
2023-02-20T03:03:19.997Z,5.20
2023-02-20T03:10:28.791Z,5.20
2023-02-20T03:12:56.901Z,5.20
2023-02-20T03:23:05.200Z,5.30
2023-02-20T03:25:39.471Z,5.40
2023-02-20T03:47:00.015Z,5.50
2023-02-20T03:49:37.927Z,5.60
2023-02-20T03:56:32.721Z,5.60
2023-02-20T03:59:04.013Z,5.60
2023-02-20T04:01:32.454Z,5.60
2023-02-20T04:04:55.229Z,5.70
2023-02-20T04:07:31.906Z,5.70
2023-02-20T04:21:46.086Z,5.70
2023-02-20T04:38:56.961Z,5.90
2023-02-20T04:41:23.876Z,6.00
2023-02-20T04:44:10.648Z,6.00
2023-02-20T04:46:37.534Z,6.00
2023-02-20T04:53:07.654Z,6.10
2023-02-20T04:55:34.526Z,6.20
2023-02-20T05:02:32.329Z,6.20
2023-02-20T05:05:02.164Z,6.20
2023-02-20T05:07:35.161Z,6.20
2023-02-20T05:14:23.875Z,6.30
2023-02-20T05:21:31.224Z,6.30
2023-02-20T05:28:25.357Z,6.40
2023-02-20T05:42:14.372Z,6.40
2023-02-20T05:45:09.371Z,6.40
2023-02-20T05:47:51.641Z,6.50
2023-02-20T05:50:33.734Z,6.50
2023-02-20T05:57:12.920Z,6.50
2023-02-20T06:04:26.330Z,6.60
2023-02-20T06:10:52.233Z,6.60
2023-02-20T06:13:41.847Z,6.60
2023-02-20T06:16:09.587Z,6.60
2023-02-20T06:18:40.919Z,6.60
2023-02-20T06:21:11.066Z,6.60
2023-02-20T06:23:38.685Z,6.70
2023-02-20T06:26:06.765Z,6.70
2023-02-20T06:28:33.888Z,6.70
2023-02-20T06:31:02.053Z,6.70
2023-02-20T06:33:29.745Z,6.70
2023-02-20T06:35:56.857Z,6.70
2023-02-20T06:38:24.281Z,6.70
2023-02-20T06:40:51.585Z,6.70
2023-02-20T06:43:18.492Z,6.70
2023-02-20T06:45:45.767Z,6.70
2023-02-20T06:48:14.477Z,6.70
2023-02-20T06:50:41.745Z,6.80
2023-02-20T06:53:08.829Z,6.80
2023-02-20T06:55:35.678Z,6.80
2023-02-20T06:58:02.528Z,6.80
2023-02-20T07:00:29.337Z,6.80
2023-02-20T07:02:56.175Z,6.80
2023-02-20T07:05:23.032Z,6.90
2023-02-20T07:07:49.924Z,6.90
2023-02-20T07:10:16.846Z,6.90
2023-02-20T07:12:43.683Z,6.90
2023-02-20T07:15:11.078Z,7.00
2023-02-20T07:17:37.912Z,7.00
2023-02-20T07:20:05.937Z,7.00
2023-02-20T07:22:32.764Z,7.00
2023-02-20T07:24:59.854Z,7.10
2023-02-20T07:27:26.790Z,7.10
2023-02-20T07:29:53.662Z,7.20
2023-02-20T07:32:23.347Z,7.20
2023-02-20T07:35:02.650Z,7.20
2023-02-20T07:37:30.940Z,7.20
2023-02-20T07:39:57.779Z,7.30
2023-02-20T07:42:24.646Z,7.30
2023-02-20T07:44:51.602Z,7.30
2023-02-20T07:47:18.448Z,7.40
2023-02-20T07:49:45.305Z,7.40
2023-02-20T07:52:12.132Z,7.50
2023-02-20T07:54:38.929Z,7.50
2023-02-20T07:57:05.750Z,7.60
2023-02-20T07:59:32.613Z,7.60
2023-02-20T08:01:59.435Z,7.60
2023-02-20T08:04:27.386Z,7.60
2023-02-20T08:06:54.254Z,7.70
2023-02-20T08:09:21.082Z,7.70
2023-02-20T08:11:48.062Z,7.70
2023-02-20T08:14:15.463Z,7.80
2023-02-20T08:16:42.423Z,7.80
2023-02-20T08:19:09.331Z,7.80
2023-02-20T08:21:36.158Z,7.90
2023-02-20T08:24:03.125Z,7.90
